sensor_id;sensor_type;location;lat;lon;timestamp;noise_LAeq;noise_LA_min;noise_LA_max;noise_LA01;noise_LA95
67308;Laerm;57662;51.436;5.978;2023-02-07T00:00:10;40.13;30.03;56.01;;
67308;Laerm;57662;51.436;5.978;2023-02-07T00:00:21;31.51;29.83;35.39;;
67308;Laerm;57662;51.436;5.978;2023-02-07T00:00:32;31.51;30.10;32.94;;
67308;Laerm;57662;51.436;5.978;2023-02-07T00:00:43;31.56;30.16;33.05;;
67308;Laerm;57662;51.436;5.978;2023-02-07T00:00:53;31.53;30.19;32.49;;
67308;Laerm;57662;51.436;5.978;2023-02-07T00:01:10;31.45;30.18;32.90;;
67308;Laerm;57662;51.436;5.978;2023-02-07T00:01:21;31.27;29.92;32.98;;
67308;Laerm;57662;51.436;5.978;2023-02-07T00:01:32;31.45;30.30;32.76;;
67308;Laerm;57662;51.436;5.978;2023-02-07T00:01:42;31.26;29.99;32.50;;
67308;Laerm;57662;51.436;5.978;2023-02-07T00:01:53;31.10;29.93;32.51;;
67308;Laerm;57662;51.436;5.978;2023-02-07T00:02:03;30.97;29.68;32.03;;
67308;Laerm;57662;51.436;5.978;2023-02-07T00:02:14;31.16;29.41;32.33;;
67308;Laerm;57662;51.436;5.978;2023-02-07T00:02:24;31.29;29.92;32.63;;
67308;Laerm;57662;51.436;5.978;2023-02-07T00:02:34;31.48;30.28;33.31;;
67308;Laerm;57662;51.436;5.978;2023-02-07T00:02:45;31.75;30.43;34.00;;
67308;Laerm;57662;51.436;5.978;2023-02-07T00:02:56;31.88;30.40;33.94;;
67308;Laerm;57662;51.436;5.978;2023-02-07T00:03:06;31.47;30.05;32.80;;
67308;Laerm;57662;51.436;5.978;2023-02-07T00:03:17;31.81;30.33;34.20;;
67308;Laerm;57662;51.436;5.978;2023-02-07T00:03:27;31.81;30.22;33.89;;
67308;Laerm;57662;51.436;5.978;2023-02-07T00:03:38;32.27;30.41;34.74;;
67308;Laerm;57662;51.436;5.978;2023-02-07T00:03:49;34.90;31.69;45.04;;
67308;Laerm;57662;51.436;5.978;2023-02-07T00:04:00;32.24;30.66;34.14;;
67308;Laerm;57662;51.436;5.978;2023-02-07T00:04:10;31.53;30.40;33.37;;
67308;Laerm;57662;51.436;5.978;2023-02-07T00:04:21;31.34;30.13;32.84;;
67308;Laerm;57662;51.436;5.978;2023-02-07T00:04:31;31.49;30.21;32.81;;
67308;Laerm;57662;51.436;5.978;2023-02-07T00:04:42;31.62;30.44;33.01;;
67308;Laerm;57662;51.436;5.978;2023-02-07T00:04:52;31.48;30.32;32.88;;
67308;Laerm;57662;51.436;5.978;2023-02-07T00:05:02;31.60;30.39;32.96;;
67308;Laerm;57662;51.436;5.978;2023-02-07T00:05:13;31.36;29.92;32.42;;
67308;Laerm;57662;51.436;5.978;2023-02-07T00:05:24;31.69;30.22;33.20;;
67308;Laerm;57662;51.436;5.978;2023-02-07T00:05:35;31.59;30.22;32.90;;
67308;Laerm;57662;51.436;5.978;2023-02-07T00:05:45;31.72;30.37;32.86;;
67308;Laerm;57662;51.436;5.978;2023-02-07T00:06:02;31.61;30.38;32.75;;
67308;Laerm;57662;51.436;5.978;2023-02-07T00:06:14;31.54;30.21;32.88;;
67308;Laerm;57662;51.436;5.978;2023-02-07T00:06:26;31.43;29.88;32.77;;
67308;Laerm;57662;51.436;5.978;2023-02-07T00:06:37;31.63;30.29;33.06;;
67308;Laerm;57662;51.436;5.978;2023-02-07T00:06:48;31.66;30.55;32.88;;
67308;Laerm;57662;51.436;5.978;2023-02-07T00:06:58;31.58;30.35;33.76;;
67308;Laerm;57662;51.436;5.978;2023-02-07T00:07:08;31.60;29.95;33.11;;
67308;Laerm;57662;51.436;5.978;2023-02-07T00:07:19;31.89;30.70;34.86;;
67308;Laerm;57662;51.436;5.978;2023-02-07T00:07:29;31.31;30.00;32.43;;
67308;Laerm;57662;51.436;5.978;2023-02-07T00:07:40;31.38;29.97;32.79;;
67308;Laerm;57662;51.436;5.978;2023-02-07T00:07:50;31.67;30.47;32.87;;
67308;Laerm;57662;51.436;5.978;2023-02-07T00:08:04;31.36;29.96;32.65;;
67308;Laerm;57662;51.436;5.978;2023-02-07T00:08:15;31.55;30.18;35.88;;
67308;Laerm;57662;51.436;5.978;2023-02-07T00:08:26;31.58;30.29;32.99;;
67308;Laerm;57662;51.436;5.978;2023-02-07T00:08:36;31.73;30.44;33.15;;
67308;Laerm;57662;51.436;5.978;2023-02-07T00:08:47;31.59;29.80;34.97;;
67308;Laerm;57662;51.436;5.978;2023-02-07T00:08:58;31.37;30.28;32.63;;
67308;Laerm;57662;51.436;5.978;2023-02-07T00:09:09;31.44;30.19;32.44;;
67308;Laerm;57662;51.436;5.978;2023-02-07T00:09:20;31.51;30.18;32.66;;
67308;Laerm;57662;51.436;5.978;2023-02-07T00:09:30;31.28;29.89;32.58;;
67308;Laerm;57662;51.436;5.978;2023-02-07T00:09:40;31.41;30.23;33.90;;
67308;Laerm;57662;51.436;5.978;2023-02-07T00:09:51;31.89;30.57;34.12;;
67308;Laerm;57662;51.436;5.978;2023-02-07T00:10:02;31.97;30.52;33.36;;
67308;Laerm;57662;51.436;5.978;2023-02-07T00:10:12;31.77;30.62;33.51;;
67308;Laerm;57662;51.436;5.978;2023-02-07T00:10:23;32.03;30.33;33.63;;
67308;Laerm;57662;51.436;5.978;2023-02-07T00:10:33;31.87;30.69;32.89;;
67308;Laerm;57662;51.436;5.978;2023-02-07T00:10:44;31.97;30.46;33.35;;
67308;Laerm;57662;51.436;5.978;2023-02-07T00:10:55;31.67;30.56;33.43;;
67308;Laerm;57662;51.436;5.978;2023-02-07T00:11:06;31.35;30.00;32.45;;
67308;Laerm;57662;51.436;5.978;2023-02-07T00:11:17;31.36;30.01;32.64;;
67308;Laerm;57662;51.436;5.978;2023-02-07T00:11:29;31.50;30.19;32.97;;
67308;Laerm;57662;51.436;5.978;2023-02-07T00:11:39;31.91;30.59;33.18;;
67308;Laerm;57662;51.436;5.978;2023-02-07T00:11:50;36.48;31.61;46.04;;
67308;Laerm;57662;51.436;5.978;2023-02-07T00:12:00;39.03;35.38;42.09;;
67308;Laerm;57662;51.436;5.978;2023-02-07T00:12:11;33.13;31.04;36.13;;
67308;Laerm;57662;51.436;5.978;2023-02-07T00:12:21;31.51;29.95;32.71;;
67308;Laerm;57662;51.436;5.978;2023-02-07T00:12:31;31.23;29.99;32.57;;
67308;Laerm;57662;51.436;5.978;2023-02-07T00:12:42;31.34;30.04;32.49;;
67308;Laerm;57662;51.436;5.978;2023-02-07T00:12:52;31.38;30.11;39.24;;
67308;Laerm;57662;51.436;5.978;2023-02-07T00:13:03;31.31;29.98;32.77;;
67308;Laerm;57662;51.436;5.978;2023-02-07T00:13:13;31.33;30.13;32.86;;
67308;Laerm;57662;51.436;5.978;2023-02-07T00:13:24;31.33;30.08;32.55;;
67308;Laerm;57662;51.436;5.978;2023-02-07T00:13:34;31.31;29.99;32.66;;
67308;Laerm;57662;51.436;5.978;2023-02-07T00:13:45;31.30;30.16;32.31;;
67308;Laerm;57662;51.436;5.978;2023-02-07T00:13:57;31.51;29.95;40.76;;
67308;Laerm;57662;51.436;5.978;2023-02-07T00:14:08;31.46;30.26;32.90;;
67308;Laerm;57662;51.436;5.978;2023-02-07T00:14:19;31.21;29.99;32.64;;
67308;Laerm;57662;51.436;5.978;2023-02-07T00:14:29;31.29;29.60;40.75;;
67308;Laerm;57662;51.436;5.978;2023-02-07T00:14:40;31.27;29.91;32.50;;
67308;Laerm;57662;51.436;5.978;2023-02-07T00:14:50;31.39;30.13;32.58;;
67308;Laerm;57662;51.436;5.978;2023-02-07T00:15:01;31.34;30.17;32.93;;
67308;Laerm;57662;51.436;5.978;2023-02-07T00:15:11;31.59;30.16;39.71;;
67308;Laerm;57662;51.436;5.978;2023-02-07T00:15:22;31.55;30.24;33.00;;
67308;Laerm;57662;51.436;5.978;2023-02-07T00:15:33;31.56;29.96;39.46;;
67308;Laerm;57662;51.436;5.978;2023-02-07T00:15:43;31.18;30.07;32.31;;
67308;Laerm;57662;51.436;5.978;2023-02-07T00:15:53;31.26;29.96;32.27;;
67308;Laerm;57662;51.436;5.978;2023-02-07T00:16:04;31.42;29.94;39.12;;
67308;Laerm;57662;51.436;5.978;2023-02-07T00:16:15;31.55;30.31;32.83;;
67308;Laerm;57662;51.436;5.978;2023-02-07T00:16:26;31.50;30.09;33.04;;
67308;Laerm;57662;51.436;5.978;2023-02-07T00:16:37;31.33;29.84;32.44;;
67308;Laerm;57662;51.436;5.978;2023-02-07T00:16:47;31.42;30.10;32.72;;
67308;Laerm;57662;51.436;5.978;2023-02-07T00:16:58;31.36;29.80;32.66;;
67308;Laerm;57662;51.436;5.978;2023-02-07T00:17:08;31.30;29.43;32.47;;
67308;Laerm;57662;51.436;5.978;2023-02-07T00:17:18;31.29;29.98;32.41;;
67308;Laerm;57662;51.436;5.978;2023-02-07T00:17:29;31.37;30.11;32.32;;
67308;Laerm;57662;51.436;5.978;2023-02-07T00:17:39;31.32;29.82;32.51;;
67308;Laerm;57662;51.436;5.978;2023-02-07T00:17:50;31.21;29.75;32.56;;
67308;Laerm;57662;51.436;5.978;2023-02-07T00:18:00;31.35;29.99;32.75;;
67308;Laerm;57662;51.436;5.978;2023-02-07T00:18:11;31.24;30.08;32.70;;
67308;Laerm;57662;51.436;5.978;2023-02-07T00:18:21;31.19;29.50;32.28;;
67308;Laerm;57662;51.436;5.978;2023-02-07T00:18:32;31.13;29.73;32.57;;
67308;Laerm;57662;51.436;5.978;2023-02-07T00:18:43;31.29;30.17;32.42;;
67308;Laerm;57662;51.436;5.978;2023-02-07T00:18:53;31.34;30.13;32.86;;
67308;Laerm;57662;51.436;5.978;2023-02-07T00:19:04;31.29;30.17;32.65;;
67308;Laerm;57662;51.436;5.978;2023-02-07T00:19:15;31.21;29.94;32.57;;
67308;Laerm;57662;51.436;5.978;2023-02-07T00:19:25;31.27;29.94;32.50;;
67308;Laerm;57662;51.436;5.978;2023-02-07T00:19:35;31.37;30.18;32.77;;
67308;Laerm;57662;51.436;5.978;2023-02-07T00:19:45;31.28;29.85;32.54;;
67308;Laerm;57662;51.436;5.978;2023-02-07T00:19:56;31.32;30.10;32.67;;
67308;Laerm;57662;51.436;5.978;2023-02-07T00:20:06;31.36;30.13;32.58;;
67308;Laerm;57662;51.436;5.978;2023-02-07T00:20:17;31.33;30.11;32.67;;
67308;Laerm;57662;51.436;5.978;2023-02-07T00:20:28;31.26;30.23;32.45;;
67308;Laerm;57662;51.436;5.978;2023-02-07T00:20:38;31.54;30.20;32.82;;
67308;Laerm;57662;51.436;5.978;2023-02-07T00:20:58;31.54;30.32;32.80;;
67308;Laerm;57662;51.436;5.978;2023-02-07T00:21:10;32.02;30.52;34.34;;
67308;Laerm;57662;51.436;5.978;2023-02-07T00:21:21;33.15;30.54;35.61;;
67308;Laerm;57662;51.436;5.978;2023-02-07T00:21:32;31.86;30.27;33.84;;
67308;Laerm;57662;51.436;5.978;2023-02-07T00:21:43;33.32;30.87;37.27;;
67308;Laerm;57662;51.436;5.978;2023-02-07T00:21:53;33.04;30.66;36.83;;
67308;Laerm;57662;51.436;5.978;2023-02-07T00:22:03;31.85;30.05;33.15;;
67308;Laerm;57662;51.436;5.978;2023-02-07T00:22:13;31.64;30.41;32.94;;
67308;Laerm;57662;51.436;5.978;2023-02-07T00:22:24;31.74;30.49;33.04;;
67308;Laerm;57662;51.436;5.978;2023-02-07T00:22:34;31.52;30.33;32.94;;
67308;Laerm;57662;51.436;5.978;2023-02-07T00:22:45;31.49;30.29;33.39;;
67308;Laerm;57662;51.436;5.978;2023-02-07T00:22:55;31.41;30.09;32.74;;
67308;Laerm;57662;51.436;5.978;2023-02-07T00:23:06;31.50;30.31;32.72;;
67308;Laerm;57662;51.436;5.978;2023-02-07T00:23:16;31.60;30.47;33.11;;
67308;Laerm;57662;51.436;5.978;2023-02-07T00:23:27;31.45;30.19;32.82;;
67308;Laerm;57662;51.436;5.978;2023-02-07T00:23:38;31.46;30.13;32.51;;
67308;Laerm;57662;51.436;5.978;2023-02-07T00:23:49;31.53;29.95;32.77;;
67308;Laerm;57662;51.436;5.978;2023-02-07T00:24:00;31.33;30.20;32.66;;
67308;Laerm;57662;51.436;5.978;2023-02-07T00:24:11;31.33;30.15;32.67;;
67308;Laerm;57662;51.436;5.978;2023-02-07T00:24:21;31.35;29.75;32.90;;
67308;Laerm;57662;51.436;5.978;2023-02-07T00:24:31;31.24;29.89;32.51;;
67308;Laerm;57662;51.436;5.978;2023-02-07T00:24:41;31.26;29.82;33.20;;
67308;Laerm;57662;51.436;5.978;2023-02-07T00:24:52;31.54;30.25;33.59;;
67308;Laerm;57662;51.436;5.978;2023-02-07T00:25:02;31.37;30.28;33.38;;
67308;Laerm;57662;51.436;5.978;2023-02-07T00:25:12;31.45;30.06;34.02;;
67308;Laerm;57662;51.436;5.978;2023-02-07T00:25:23;31.42;30.22;34.05;;
67308;Laerm;57662;51.436;5.978;2023-02-07T00:25:33;31.29;29.87;33.00;;
67308;Laerm;57662;51.436;5.978;2023-02-07T00:25:44;31.52;29.44;33.12;;
67308;Laerm;57662;51.436;5.978;2023-02-07T00:25:55;31.54;29.86;32.86;;
67308;Laerm;57662;51.436;5.978;2023-02-07T00:26:06;31.71;30.24;33.54;;
67308;Laerm;57662;51.436;5.978;2023-02-07T00:26:17;31.56;30.21;33.00;;
67308;Laerm;57662;51.436;5.978;2023-02-07T00:26:28;31.44;30.07;32.49;;
67308;Laerm;57662;51.436;5.978;2023-02-07T00:26:39;31.54;30.13;32.73;;
67308;Laerm;57662;51.436;5.978;2023-02-07T00:26:49;32.43;30.05;38.66;;
67308;Laerm;57662;51.436;5.978;2023-02-07T00:27:01;32.13;30.35;39.88;;
67308;Laerm;57662;51.436;5.978;2023-02-07T00:27:11;32.28;30.95;33.84;;
67308;Laerm;57662;51.436;5.978;2023-02-07T00:27:22;33.00;31.36;34.84;;
67308;Laerm;57662;51.436;5.978;2023-02-07T00:27:32;32.49;30.90;34.01;;
67308;Laerm;57662;51.436;5.978;2023-02-07T00:27:43;32.17;30.52;34.13;;
67308;Laerm;57662;51.436;5.978;2023-02-07T00:27:53;31.98;30.73;34.07;;
67308;Laerm;57662;51.436;5.978;2023-02-07T00:28:03;31.65;30.34;33.48;;
67308;Laerm;57662;51.436;5.978;2023-02-07T00:28:14;31.55;30.19;32.84;;
67308;Laerm;57662;51.436;5.978;2023-02-07T00:28:24;31.61;29.84;33.08;;
67308;Laerm;57662;51.436;5.978;2023-02-07T00:28:35;31.90;30.58;33.55;;
67308;Laerm;57662;51.436;5.978;2023-02-07T00:28:46;31.90;30.35;33.62;;
67308;Laerm;57662;51.436;5.978;2023-02-07T00:28:57;31.52;30.38;32.81;;
67308;Laerm;57662;51.436;5.978;2023-02-07T00:29:07;31.90;30.21;35.60;;
67308;Laerm;57662;51.436;5.978;2023-02-07T00:29:18;31.57;30.15;34.70;;
67308;Laerm;57662;51.436;5.978;2023-02-07T00:29:28;31.57;30.35;34.91;;
67308;Laerm;57662;51.436;5.978;2023-02-07T00:29:39;31.49;29.97;32.74;;
67308;Laerm;57662;51.436;5.978;2023-02-07T00:29:49;31.52;30.22;32.87;;
67308;Laerm;57662;51.436;5.978;2023-02-07T00:29:59;31.72;30.45;32.97;;
67308;Laerm;57662;51.436;5.978;2023-02-07T00:30:10;31.85;30.57;33.43;;
67308;Laerm;57662;51.436;5.978;2023-02-07T00:30:20;32.60;30.95;34.48;;
67308;Laerm;57662;51.436;5.978;2023-02-07T00:30:30;33.17;31.02;36.58;;
67308;Laerm;57662;51.436;5.978;2023-02-07T00:30:41;32.41;30.89;34.57;;
67308;Laerm;57662;51.436;5.978;2023-02-07T00:31:00;31.69;30.15;32.90;;
67308;Laerm;57662;51.436;5.978;2023-02-07T00:31:18;38.34;30.19;56.66;;
67308;Laerm;57662;51.436;5.978;2023-02-07T00:31:30;31.58;30.16;33.23;;
67308;Laerm;57662;51.436;5.978;2023-02-07T00:31:40;31.68;30.36;33.76;;
67308;Laerm;57662;51.436;5.978;2023-02-07T00:31:51;31.56;30.10;34.33;;
67308;Laerm;57662;51.436;5.978;2023-02-07T00:32:01;31.56;30.08;34.12;;
67308;Laerm;57662;51.436;5.978;2023-02-07T00:32:12;31.29;29.85;32.58;;
67308;Laerm;57662;51.436;5.978;2023-02-07T00:32:23;31.33;30.02;32.98;;
67308;Laerm;57662;51.436;5.978;2023-02-07T00:32:33;31.42;30.24;32.66;;
67308;Laerm;57662;51.436;5.978;2023-02-07T00:32:44;31.50;30.29;32.91;;
67308;Laerm;57662;51.436;5.978;2023-02-07T00:32:54;31.40;30.00;33.08;;
67308;Laerm;57662;51.436;5.978;2023-02-07T00:33:04;31.23;29.66;32.77;;
67308;Laerm;57662;51.436;5.978;2023-02-07T00:33:15;31.27;29.70;32.43;;
67308;Laerm;57662;51.436;5.978;2023-02-07T00:33:25;31.23;29.97;32.36;;
67308;Laerm;57662;51.436;5.978;2023-02-07T00:33:36;31.35;30.18;32.58;;
67308;Laerm;57662;51.436;5.978;2023-02-07T00:33:47;31.30;29.87;32.37;;
67308;Laerm;57662;51.436;5.978;2023-02-07T00:33:59;31.28;29.71;32.42;;
67308;Laerm;57662;51.436;5.978;2023-02-07T00:34:10;31.25;29.44;32.43;;
67308;Laerm;57662;51.436;5.978;2023-02-07T00:34:20;31.35;29.99;32.66;;
67308;Laerm;57662;51.436;5.978;2023-02-07T00:34:31;31.30;30.14;32.47;;
67308;Laerm;57662;51.436;5.978;2023-02-07T00:34:45;31.32;30.15;32.70;;
67308;Laerm;57662;51.436;5.978;2023-02-07T00:34:56;31.39;30.21;32.49;;
67308;Laerm;57662;51.436;5.978;2023-02-07T00:35:07;31.34;30.13;32.59;;
67308;Laerm;57662;51.436;5.978;2023-02-07T00:35:17;31.43;30.31;32.80;;
67308;Laerm;57662;51.436;5.978;2023-02-07T00:35:27;31.32;29.92;32.47;;
67308;Laerm;57662;51.436;5.978;2023-02-07T00:35:38;31.34;30.07;32.53;;
67308;Laerm;57662;51.436;5.978;2023-02-07T00:35:55;31.41;29.99;32.80;;
67308;Laerm;57662;51.436;5.978;2023-02-07T00:36:06;31.41;30.10;33.14;;
67308;Laerm;57662;51.436;5.978;2023-02-07T00:36:23;31.39;30.00;33.03;;
67308;Laerm;57662;51.436;5.978;2023-02-07T00:36:34;31.48;30.28;33.06;;
67308;Laerm;57662;51.436;5.978;2023-02-07T00:36:44;31.20;29.96;32.49;;
67308;Laerm;57662;51.436;5.978;2023-02-07T00:36:55;31.23;30.08;32.83;;
67308;Laerm;57662;51.436;5.978;2023-02-07T00:37:05;31.25;30.11;32.63;;
67308;Laerm;57662;51.436;5.978;2023-02-07T00:37:15;31.23;29.96;32.52;;
67308;Laerm;57662;51.436;5.978;2023-02-07T00:37:26;31.27;29.88;32.85;;
67308;Laerm;57662;51.436;5.978;2023-02-07T00:37:36;31.24;29.90;32.53;;
67308;Laerm;57662;51.436;5.978;2023-02-07T00:37:46;31.18;29.84;32.73;;
67308;Laerm;57662;51.436;5.978;2023-02-07T00:37:57;31.29;29.86;33.24;;
67308;Laerm;57662;51.436;5.978;2023-02-07T00:38:07;31.26;29.95;32.39;;
67308;Laerm;57662;51.436;5.978;2023-02-07T00:38:18;31.36;30.09;32.62;;
67308;Laerm;57662;51.436;5.978;2023-02-07T00:38:28;31.43;30.40;37.40;;
67308;Laerm;57662;51.436;5.978;2023-02-07T00:38:38;31.29;29.84;32.64;;
67308;Laerm;57662;51.436;5.978;2023-02-07T00:38:49;31.25;30.11;32.54;;
67308;Laerm;57662;51.436;5.978;2023-02-07T00:39:01;31.16;29.83;32.69;;
67308;Laerm;57662;51.436;5.978;2023-02-07T00:39:13;31.35;29.79;33.58;;
67308;Laerm;57662;51.436;5.978;2023-02-07T00:39:24;31.30;29.91;33.35;;
67308;Laerm;57662;51.436;5.978;2023-02-07T00:39:34;31.31;29.90;34.02;;
67308;Laerm;57662;51.436;5.978;2023-02-07T00:39:45;31.41;30.16;32.62;;
67308;Laerm;57662;51.436;5.978;2023-02-07T00:39:55;31.34;30.03;32.61;;
67308;Laerm;57662;51.436;5.978;2023-02-07T00:40:05;31.50;30.07;34.19;;
67308;Laerm;57662;51.436;5.978;2023-02-07T00:40:17;31.73;30.07;33.88;;
67308;Laerm;57662;51.436;5.978;2023-02-07T00:40:27;31.61;29.97;34.29;;
67308;Laerm;57662;51.436;5.978;2023-02-07T00:40:37;31.47;30.27;32.89;;
67308;Laerm;57662;51.436;5.978;2023-02-07T00:40:48;31.66;30.24;33.49;;
67308;Laerm;57662;51.436;5.978;2023-02-07T00:40:58;31.43;30.17;32.93;;
67308;Laerm;57662;51.436;5.978;2023-02-07T00:41:11;31.45;30.10;33.63;;
67308;Laerm;57662;51.436;5.978;2023-02-07T00:41:27;31.46;29.94;33.38;;
67308;Laerm;57662;51.436;5.978;2023-02-07T00:41:37;31.59;30.20;33.56;;
67308;Laerm;57662;51.436;5.978;2023-02-07T00:41:48;31.59;29.85;33.73;;
67308;Laerm;57662;51.436;5.978;2023-02-07T00:41:58;31.45;29.77;33.63;;
67308;Laerm;57662;51.436;5.978;2023-02-07T00:42:08;31.41;30.11;32.99;;
67308;Laerm;57662;51.436;5.978;2023-02-07T00:42:19;31.55;30.10;34.23;;
67308;Laerm;57662;51.436;5.978;2023-02-07T00:42:29;31.42;30.29;32.71;;
67308;Laerm;57662;51.436;5.978;2023-02-07T00:42:40;31.53;30.14;32.96;;
67308;Laerm;57662;51.436;5.978;2023-02-07T00:42:50;31.37;29.88;32.67;;
67308;Laerm;57662;51.436;5.978;2023-02-07T00:43:00;31.30;30.13;32.85;;
67308;Laerm;57662;51.436;5.978;2023-02-07T00:43:11;31.24;29.93;32.40;;
67308;Laerm;57662;51.436;5.978;2023-02-07T00:43:21;31.27;29.72;32.98;;
67308;Laerm;57662;51.436;5.978;2023-02-07T00:43:32;31.37;30.15;34.41;;
67308;Laerm;57662;51.436;5.978;2023-02-07T00:43:43;31.35;30.16;32.78;;
67308;Laerm;57662;51.436;5.978;2023-02-07T00:43:53;31.31;29.85;32.62;;
67308;Laerm;57662;51.436;5.978;2023-02-07T00:44:04;31.26;30.02;32.54;;
67308;Laerm;57662;51.436;5.978;2023-02-07T00:44:15;31.33;30.21;32.54;;
67308;Laerm;57662;51.436;5.978;2023-02-07T00:44:25;31.55;30.14;33.23;;
67308;Laerm;57662;51.436;5.978;2023-02-07T00:44:36;31.41;30.19;32.79;;
67308;Laerm;57662;51.436;5.978;2023-02-07T00:44:46;31.41;29.73;32.65;;
67308;Laerm;57662;51.436;5.978;2023-02-07T00:44:56;31.42;30.24;32.65;;
67308;Laerm;57662;51.436;5.978;2023-02-07T00:45:06;31.44;30.19;32.56;;
67308;Laerm;57662;51.436;5.978;2023-02-07T00:45:17;31.41;29.72;32.62;;
67308;Laerm;57662;51.436;5.978;2023-02-07T00:45:27;31.43;30.04;32.70;;
67308;Laerm;57662;51.436;5.978;2023-02-07T00:45:37;31.49;30.10;32.65;;
67308;Laerm;57662;51.436;5.978;2023-02-07T00:45:48;31.36;30.03;32.66;;
67308;Laerm;57662;51.436;5.978;2023-02-07T00:45:59;42.03;32.14;47.09;;
67308;Laerm;57662;51.436;5.978;2023-02-07T00:46:09;43.42;39.43;47.10;;
67308;Laerm;57662;51.436;5.978;2023-02-07T00:46:20;45.13;39.62;48.41;;
67308;Laerm;57662;51.436;5.978;2023-02-07T00:46:30;47.67;41.96;55.46;;
67308;Laerm;57662;51.436;5.978;2023-02-07T00:46:41;68.54;54.23;71.47;;
67308;Laerm;57662;51.436;5.978;2023-02-07T00:46:52;70.45;67.44;72.23;;
67308;Laerm;57662;51.436;5.978;2023-02-07T00:47:02;66.23;49.89;72.97;;
67308;Laerm;57662;51.436;5.978;2023-02-07T00:47:12;49.55;45.70;52.66;;
67308;Laerm;57662;51.436;5.978;2023-02-07T00:47:23;45.06;42.56;49.08;;
67308;Laerm;57662;51.436;5.978;2023-02-07T00:47:33;43.43;40.65;45.51;;
67308;Laerm;57662;51.436;5.978;2023-02-07T00:47:43;42.61;39.34;45.08;;
67308;Laerm;57662;51.436;5.978;2023-02-07T00:47:54;40.30;37.62;43.53;;
67308;Laerm;57662;51.436;5.978;2023-02-07T00:48:04;38.93;35.79;41.75;;
67308;Laerm;57662;51.436;5.978;2023-02-07T00:48:14;36.13;33.47;40.02;;
67308;Laerm;57662;51.436;5.978;2023-02-07T00:48:25;34.72;33.04;37.58;;
67308;Laerm;57662;51.436;5.978;2023-02-07T00:48:36;34.46;32.76;36.63;;
67308;Laerm;57662;51.436;5.978;2023-02-07T00:48:48;33.71;32.02;35.62;;
67308;Laerm;57662;51.436;5.978;2023-02-07T00:48:59;33.36;31.51;35.06;;
67308;Laerm;57662;51.436;5.978;2023-02-07T00:49:10;32.68;30.91;34.60;;
67308;Laerm;57662;51.436;5.978;2023-02-07T00:49:20;32.18;31.03;33.71;;
67308;Laerm;57662;51.436;5.978;2023-02-07T00:49:31;32.35;30.66;33.78;;
67308;Laerm;57662;51.436;5.978;2023-02-07T00:49:41;32.17;30.82;33.61;;
67308;Laerm;57662;51.436;5.978;2023-02-07T00:49:52;32.40;30.90;34.44;;
67308;Laerm;57662;51.436;5.978;2023-02-07T00:50:02;36.02;31.57;41.03;;
67308;Laerm;57662;51.436;5.978;2023-02-07T00:50:12;38.54;33.75;42.33;;
67308;Laerm;57662;51.436;5.978;2023-02-07T00:50:23;36.61;31.64;42.86;;
67308;Laerm;57662;51.436;5.978;2023-02-07T00:50:33;32.22;30.83;33.88;;
67308;Laerm;57662;51.436;5.978;2023-02-07T00:50:44;32.01;30.63;33.38;;
67308;Laerm;57662;51.436;5.978;2023-02-07T00:50:54;31.97;30.91;33.28;;
67308;Laerm;57662;51.436;5.978;2023-02-07T00:51:05;32.00;29.98;34.27;;
67308;Laerm;57662;51.436;5.978;2023-02-07T00:51:15;32.16;30.53;35.14;;
67308;Laerm;57662;51.436;5.978;2023-02-07T00:51:26;31.91;30.53;34.82;;
67308;Laerm;57662;51.436;5.978;2023-02-07T00:51:36;31.83;30.05;33.21;;
67308;Laerm;57662;51.436;5.978;2023-02-07T00:51:47;31.78;30.46;33.19;;
67308;Laerm;57662;51.436;5.978;2023-02-07T00:51:57;31.55;30.42;32.78;;
67308;Laerm;57662;51.436;5.978;2023-02-07T00:52:08;31.39;30.20;32.67;;
67308;Laerm;57662;51.436;5.978;2023-02-07T00:52:18;31.45;29.95;32.89;;
67308;Laerm;57662;51.436;5.978;2023-02-07T00:52:28;31.47;30.09;32.60;;
67308;Laerm;57662;51.436;5.978;2023-02-07T00:52:39;31.42;30.18;33.28;;
67308;Laerm;57662;51.436;5.978;2023-02-07T00:52:49;31.54;30.25;33.20;;
67308;Laerm;57662;51.436;5.978;2023-02-07T00:53:00;31.49;30.17;32.66;;
67308;Laerm;57662;51.436;5.978;2023-02-07T00:53:10;31.50;30.06;33.03;;
67308;Laerm;57662;51.436;5.978;2023-02-07T00:53:20;31.53;30.15;33.29;;
67308;Laerm;57662;51.436;5.978;2023-02-07T00:53:31;31.28;30.16;32.36;;
67308;Laerm;57662;51.436;5.978;2023-02-07T00:53:42;31.46;30.42;32.66;;
67308;Laerm;57662;51.436;5.978;2023-02-07T00:53:54;31.44;30.15;32.69;;
67308;Laerm;57662;51.436;5.978;2023-02-07T00:54:04;31.30;30.03;32.29;;
67308;Laerm;57662;51.436;5.978;2023-02-07T00:54:15;31.25;29.96;32.45;;
67308;Laerm;57662;51.436;5.978;2023-02-07T00:54:25;31.43;30.09;32.90;;
67308;Laerm;57662;51.436;5.978;2023-02-07T00:54:35;31.45;30.19;32.62;;
67308;Laerm;57662;51.436;5.978;2023-02-07T00:54:46;31.40;30.05;32.49;;
67308;Laerm;57662;51.436;5.978;2023-02-07T00:54:56;31.46;30.02;32.60;;
67308;Laerm;57662;51.436;5.978;2023-02-07T00:55:07;31.42;30.02;32.51;;
67308;Laerm;57662;51.436;5.978;2023-02-07T00:55:17;31.44;29.87;32.87;;
67308;Laerm;57662;51.436;5.978;2023-02-07T00:55:27;31.49;29.88;32.94;;
67308;Laerm;57662;51.436;5.978;2023-02-07T00:55:38;31.51;30.07;32.85;;
67308;Laerm;57662;51.436;5.978;2023-02-07T00:55:48;31.55;30.30;33.25;;
67308;Laerm;57662;51.436;5.978;2023-02-07T00:55:59;31.69;30.11;32.84;;
67308;Laerm;57662;51.436;5.978;2023-02-07T00:56:09;31.79;30.57;33.32;;
67308;Laerm;57662;51.436;5.978;2023-02-07T00:56:20;31.65;30.41;33.56;;
67308;Laerm;57662;51.436;5.978;2023-02-07T00:56:31;31.61;29.77;33.18;;
67308;Laerm;57662;51.436;5.978;2023-02-07T00:56:42;31.79;30.51;33.21;;
67308;Laerm;57662;51.436;5.978;2023-02-07T00:56:52;31.67;30.49;32.97;;
67308;Laerm;57662;51.436;5.978;2023-02-07T00:57:03;31.45;30.13;32.64;;
67308;Laerm;57662;51.436;5.978;2023-02-07T00:57:13;31.55;30.10;33.00;;
67308;Laerm;57662;51.436;5.978;2023-02-07T00:57:23;31.45;29.76;32.63;;
67308;Laerm;57662;51.436;5.978;2023-02-07T00:57:33;31.55;30.31;33.28;;
67308;Laerm;57662;51.436;5.978;2023-02-07T00:57:44;31.46;30.09;32.77;;
67308;Laerm;57662;51.436;5.978;2023-02-07T00:57:54;31.50;30.38;32.80;;
67308;Laerm;57662;51.436;5.978;2023-02-07T00:58:04;31.54;30.24;32.86;;
67308;Laerm;57662;51.436;5.978;2023-02-07T00:58:15;31.39;30.20;32.64;;
67308;Laerm;57662;51.436;5.978;2023-02-07T00:58:25;31.44;30.35;32.72;;
67308;Laerm;57662;51.436;5.978;2023-02-07T00:58:36;31.40;30.15;32.65;;
67308;Laerm;57662;51.436;5.978;2023-02-07T00:58:46;31.44;30.04;32.85;;
67308;Laerm;57662;51.436;5.978;2023-02-07T00:58:57;31.38;30.03;32.59;;
67308;Laerm;57662;51.436;5.978;2023-02-07T00:59:08;31.38;30.03;32.55;;
67308;Laerm;57662;51.436;5.978;2023-02-07T00:59:18;31.42;30.42;32.65;;
67308;Laerm;57662;51.436;5.978;2023-02-07T00:59:28;31.27;30.06;32.82;;
67308;Laerm;57662;51.436;5.978;2023-02-07T00:59:39;31.29;29.81;32.41;;
67308;Laerm;57662;51.436;5.978;2023-02-07T00:59:49;31.23;30.11;32.41;;
67308;Laerm;57662;51.436;5.978;2023-02-07T01:00:00;31.31;29.41;33.24;;
67308;Laerm;57662;51.436;5.978;2023-02-07T01:00:10;44.70;30.08;57.03;;
67308;Laerm;57662;51.436;5.978;2023-02-07T01:00:21;31.88;30.45;35.45;;